createdAt,value
2023-04-26T09:50:30.578Z,84.64
2023-04-26T09:55:35.741Z,81.78
2023-04-26T10:00:40.347Z,77.64
2023-04-26T10:05:47.571Z,77.16
2023-04-26T10:10:51.378Z,75.58
2023-04-26T10:15:56.517Z,72.47
2023-04-26T10:21:03.279Z,71.93
2023-04-26T10:26:07.612Z,68.94
2023-04-26T10:31:11.455Z,70.34
2023-04-26T10:36:16.981Z,70.39
2023-04-26T10:41:34.056Z,70.63
2023-04-26T10:46:38.620Z,71.60
2023-04-26T10:52:03.283Z,71.46
2023-04-26T10:57:07.278Z,67.48
2023-04-26T11:02:12.977Z,65.62
2023-04-26T11:07:18.097Z,67.77
2023-04-26T11:12:23.184Z,71.23
2023-04-26T11:17:26.546Z,65.16
2023-04-26T11:22:34.586Z,66.92
2023-04-26T11:27:40.349Z,67.74
2023-04-26T11:32:43.752Z,67.75
2023-04-26T11:37:49.405Z,67.97
2023-04-26T11:42:54.854Z,69.21
2023-04-26T11:47:58.587Z,67.25
2023-04-26T11:53:04.830Z,68.42
2023-04-26T11:58:12.395Z,67.77
2023-04-26T12:03:17.117Z,67.44
2023-04-26T12:08:27.461Z,67.37
2023-04-26T12:13:40.791Z,67.51
2023-04-26T12:18:50.833Z,67.63
2023-04-26T12:23:56.734Z,66.79
2023-04-26T12:29:00.260Z,65.37
2023-04-26T12:34:03.818Z,65.26
2023-04-26T12:39:09.138Z,64.60
2023-04-26T12:44:14.313Z,62.10
2023-04-26T12:49:18.190Z,61.76
2023-04-26T12:54:25.693Z,64.24
2023-04-26T12:59:31.257Z,65.82
2023-04-26T13:04:38.273Z,61.28
2023-04-26T13:09:44.823Z,61.01
2023-04-26T13:14:48.500Z,61.71
2023-04-26T13:19:52.790Z,63.16
2023-04-26T13:24:57.650Z,60.40
2023-04-26T13:30:00.947Z,60.62
2023-04-26T13:35:04.553Z,62.49
2023-04-26T13:40:11.244Z,64.72
2023-04-26T13:45:14.679Z,67.32
2023-04-26T13:50:18.054Z,67.30
2023-04-26T13:55:23.320Z,66.62
2023-04-26T14:00:27.154Z,66.48
2023-04-26T14:05:30.830Z,73.32
2023-04-26T14:10:35.736Z,69.63
2023-04-26T14:15:41.362Z,63.72
2023-04-26T14:20:44.739Z,65.77
2023-04-26T14:25:54.588Z,62.11
2023-04-26T14:30:57.962Z,63.35
2023-04-26T14:36:09.802Z,61.40
2023-04-26T14:41:22.020Z,64.67
2023-04-26T14:46:25.809Z,63.64
2023-04-26T14:51:29.241Z,62.71
2023-04-26T14:56:37.269Z,64.84
2023-04-26T15:01:40.645Z,61.87
2023-04-26T15:06:46.459Z,62.49
2023-04-26T15:11:51.479Z,64.30
2023-04-26T15:16:55.250Z,66.26
2023-04-26T15:21:59.057Z,64.77
2023-04-26T15:27:04.372Z,68.22
2023-04-26T15:32:07.852Z,67.83
2023-04-26T15:37:13.992Z,67.08
2023-04-26T15:42:19.511Z,66.20
2023-04-26T15:47:23.418Z,66.67
2023-04-26T15:52:27.094Z,66.39
2023-04-26T15:57:31.908Z,68.45
2023-04-26T16:02:38.495Z,69.80
2023-04-26T16:07:42.319Z,68.58
2023-04-26T16:12:47.621Z,69.48
2023-04-26T16:17:51.315Z,70.54
2023-04-26T16:22:55.000Z,72.24
2023-04-26T16:27:59.874Z,73.04
2023-04-26T16:33:04.678Z,73.42
2023-04-26T16:38:08.441Z,73.08
2023-04-26T16:43:42.638Z,75.20
2023-04-26T16:49:01.051Z,72.38
2023-04-26T16:54:12.083Z,74.01
2023-04-26T16:59:15.490Z,73.51
2023-04-26T17:04:21.386Z,73.44
2023-04-26T17:09:26.725Z,72.50
2023-04-26T17:14:38.473Z,72.99
2023-04-26T17:19:43.722Z,72.35
2023-04-26T17:24:54.437Z,71.22
2023-04-26T17:29:59.255Z,71.37
2023-04-26T17:35:06.788Z,73.09
2023-04-26T17:40:15.878Z,74.05
2023-04-26T17:45:20.995Z,75.48
2023-04-26T17:50:25.089Z,76.75
2023-04-26T17:55:30.604Z,75.12
2023-04-26T18:00:50.069Z,77.18
2023-04-26T18:05:56.032Z,77.95
2023-04-26T18:11:04.618Z,79.12
2023-04-26T18:16:08.447Z,81.19
2023-04-26T18:21:12.269Z,82.70
2023-04-26T18:32:07.051Z,85.41
2023-04-26T18:37:10.918Z,87.71
2023-04-26T18:42:16.161Z,88.34
2023-04-26T18:47:23.322Z,89.71
2023-04-26T18:52:27.097Z,91.11
2023-04-26T18:57:31.618Z,93.99
2023-04-26T19:02:40.074Z,94.99
2023-04-26T19:07:44.231Z,97.27
2023-04-26T19:12:48.313Z,98.76
2023-04-26T19:17:53.753Z,98.94
2023-04-26T19:22:57.556Z,100.00
2023-04-26T19:28:01.345Z,100.00
2023-04-26T19:33:08.350Z,100.00
2023-04-26T19:38:12.327Z,100.00
2023-04-26T19:43:18.809Z,100.00
2023-04-26T19:48:23.762Z,100.00
2023-04-26T19:53:30.866Z,100.00
2023-04-26T19:58:34.619Z,100.00
2023-04-26T20:03:41.388Z,100.00
2023-04-26T20:08:46.794Z,100.00
2023-04-26T20:13:50.482Z,100.00
2023-04-26T20:19:10.232Z,100.00
2023-04-26T20:24:15.079Z,100.00
2023-04-26T20:29:18.823Z,100.00
2023-04-26T20:34:24.349Z,100.00
2023-04-26T20:39:30.704Z,100.00
2023-04-26T20:44:37.277Z,100.00
2023-04-26T20:49:43.248Z,100.00
2023-04-26T20:54:49.636Z,100.00
2023-04-26T20:59:54.495Z,100.00
2023-04-26T21:04:59.397Z,100.00
2023-04-26T21:10:03.514Z,100.00
2023-04-26T21:15:07.586Z,100.00
2023-04-26T21:20:13.104Z,100.00
2023-04-26T21:25:19.483Z,100.00
2023-04-26T21:30:23.762Z,100.00
